Terminal Aerodrome Forecast
Issued by NWS

Home | Current Version | Previous Version | Text Only | Print | Product List | Glossary On
Versions: 1 2 3 4 5 6 7 8 9 10 11 12 13 14 15 16 17 18 19 20 21 22 23 24 25 26 27 28 29 30 31 32 33 34 35
000
FTUS45 KBYZ 301734
TAFLVM
TAF
KLVM 301734Z 3018/3118 25010KT P6SM -RA BKN020 OVC040
      TEMPO 3018/3020 SCT020 BKN050
     FM302000 VRB05KT P6SM VCSH SCT020 BKN060
     FM310000 08014KT P6SM VCSH SCT030 BKN060
     FM310600 08007KT 5SM -SHRASN SCT020 BKN040=

USA.gov is the U.S. government's official web portal to all federal, state and local government web resources and services.